ESNK

Kramfors Sollefteå Airport

Kramfors / Sollefteå, Sweden
METAR ESNK 171620Z 18015KT CAVOK 21/11 Q1007
Observed Flight Rules
Aug-17 @ 16:20 UTC (33 minutes ago) Visual Flight Rules
Wind Visibility Clouds
180° at 15 knots 10,000+ meters
  • Clear skies
Temperatures Readings
Current 21°C / 70°F
Dewpoint 11°C / 52°F
Humidity 53%
Altimeter 29.73" Hg
Pressure 1007 hPa
Elevation 19
METAR ESNK 171620Z 18015KT CAVOK 21/11 Q1007
Observed Flight Rules
Aug-17 @ 16:20 UTC
(33 minutes ago)
VFR
Wind Visibility
180° at 15 knots 10,000+ meters
Clouds
  • Clear skies
Temperature Dewpoint
21°C / 70°F 11°C / 52°F
Humidity Altimeter Pressure
53% 29.73" Hg 1007 hPa